PAMD METAR and TAF weather

Enter ICAO airport designator
Station Type Date Time Source
PAMD METAR 2019/10/23 06:51 UTC NOAA

PAMD 230651Z AUTO 11028G37KT 7SM -RA FEW012 OVC044 07/06 A2983 RMK AO2 PK WND 12037/0643 SLP093 P0000 T00720061


Station Type Date Time Source
PAMD Decoded METAR 2019/10/23 06:51 UTC NOAA

Middleton Island, Middleton Island Airport, AK, United States (PAMD) 59-26N 146-18W 14M
Oct 23, 2019 - 02:51 AM EDT / 2019.10.23 0651 UTC
Wind: from the ESE (110 degrees) at 32 MPH (28 KT) gusting to 43 MPH (37 KT):0
Visibility: 7 mile(s):0
Sky conditions: overcast
Weather: light rain
Precipitation last hour: A trace
Temperature: 45.0 F (7.2 C)
Dew Point: 43.0 F (6.1 C)
Relative Humidity: 92%
Pressure (altimeter): 29.83 in. Hg (1010 hPa)
ob: PAMD 230651Z AUTO 11028G37KT 7SM -RA FEW012 OVC044 07/06 A2983 RMK AO2 PK WND 12037/0643 SLP093 P0000 T00720061
cycle: 7

Station Type Date Time Source
PAMD TAF UTC NOAA

Error!

Example: see airport list